Terminal Aerodrome Forecast
Issued by NWS Bismarck, ND

Home | Current Version | Previous Version | Graphics & Text | Print | Product List | Glossary On
Versions: 1 2 3 4 5 6 7 8 9 10 11 12 13 14 15 16 17 18 19 20 21
912
FTUS43 KBIS 200448 AAC
TAFBIS
TAF AMD
KBIS 200448Z 2005/2024 15004KT P6SM SKC
      TEMPO 2005/2006 4SM BR
     FM200600 14004KT 1/2SM FZFG VV004
     FM201600 VRB03KT 1SM BR BKN003
     FM201900 VRB03KT 3SM BR BKN008=

USA.gov is the U.S. government's official web portal to all federal, state and local government web resources and services.